createdAt,value
2024-03-17T00:00:34.106Z,0.70
2024-03-17T00:01:34.226Z,0.69
2024-03-17T00:02:34.245Z,0.69
2024-03-17T00:03:34.358Z,0.70
2024-03-17T00:04:34.384Z,0.69
2024-03-17T00:05:34.451Z,0.69
2024-03-17T00:06:34.497Z,0.70
2024-03-17T00:07:34.577Z,0.69
2024-03-17T00:08:34.599Z,0.70
2024-03-17T00:09:34.697Z,0.70
2024-03-17T00:10:34.710Z,0.70
2024-03-17T00:11:34.817Z,0.71
2024-03-17T00:12:34.837Z,0.69
2024-03-17T00:13:34.968Z,0.70
2024-03-17T00:14:35.024Z,0.70
2024-03-17T00:15:35.041Z,0.70
2024-03-17T00:16:35.070Z,0.70
2024-03-17T00:17:35.169Z,0.70
2024-03-17T00:18:35.264Z,0.70
2024-03-17T00:19:35.302Z,0.70
2024-03-17T00:20:35.359Z,0.70
2024-03-17T00:21:35.434Z,0.71
2024-03-17T00:22:35.514Z,0.69
2024-03-17T00:23:35.604Z,0.71
2024-03-17T00:24:35.642Z,0.70
2024-03-17T00:25:36.002Z,0.71
2024-03-17T00:26:35.872Z,0.71
2024-03-17T00:27:35.831Z,0.70
2024-03-17T00:28:35.946Z,0.71
2024-03-17T00:29:35.948Z,0.71
2024-03-17T00:30:36.965Z,0.72
2024-03-17T00:31:36.065Z,0.69
2024-03-17T00:32:36.103Z,0.71
2024-03-17T00:33:36.189Z,0.72
2024-03-17T00:34:36.296Z,0.70
2024-03-17T00:35:36.289Z,0.71
2024-03-17T00:36:36.403Z,0.72
2024-03-17T00:37:36.443Z,0.72
2024-03-17T00:38:36.592Z,0.70
2024-03-17T00:39:36.651Z,0.73
2024-03-17T00:40:36.668Z,0.71
2024-03-17T00:41:36.740Z,0.73
2024-03-17T00:42:36.791Z,0.72
2024-03-17T00:43:36.891Z,0.73
2024-03-17T00:44:36.896Z,0.72
2024-03-17T00:45:37.001Z,0.72
2024-03-17T00:46:37.006Z,0.70
2024-03-17T00:47:37.124Z,0.72
2024-03-17T00:48:37.189Z,0.70
2024-03-17T00:49:37.454Z,0.73
2024-03-17T00:50:37.353Z,0.72
2024-03-17T00:51:37.389Z,0.72
2024-03-17T00:52:37.459Z,0.72
2024-03-17T00:53:37.541Z,0.72
2024-03-17T00:54:37.632Z,0.73
2024-03-17T00:55:37.702Z,0.72
2024-03-17T00:56:37.748Z,0.73
2024-03-17T00:57:38.549Z,0.72
2024-03-17T00:58:37.887Z,0.72
2024-03-17T00:59:37.990Z,0.72
2024-03-17T01:00:38.022Z,0.73
2024-03-17T01:01:38.093Z,0.72
2024-03-17T01:02:38.161Z,0.72
2024-03-17T01:03:38.214Z,0.74
2024-03-17T01:04:38.332Z,0.72
2024-03-17T01:05:38.376Z,0.73
2024-03-17T01:06:38.454Z,0.72
2024-03-17T01:07:38.482Z,0.72
2024-03-17T01:08:38.577Z,0.73
2024-03-17T01:09:38.617Z,0.72
2024-03-17T01:10:38.720Z,0.73
2024-03-17T01:11:38.789Z,0.73
2024-03-17T01:12:38.839Z,0.73
2024-03-17T01:13:38.901Z,0.73
2024-03-17T01:14:39.006Z,0.72
2024-03-17T01:15:39.047Z,0.73
2024-03-17T01:16:39.130Z,0.72
2024-03-17T01:17:39.237Z,0.73
2024-03-17T01:18:39.265Z,0.73
2024-03-17T01:19:39.366Z,0.72
2024-03-17T01:20:39.465Z,0.73
2024-03-17T01:21:39.494Z,0.72
2024-03-17T01:22:39.532Z,0.74
2024-03-17T01:23:39.629Z,0.72
2024-03-17T01:24:39.715Z,0.74
2024-03-17T01:25:39.733Z,0.74
2024-03-17T01:26:39.824Z,0.72
2024-03-17T01:27:39.918Z,0.73
2024-03-17T01:28:40.032Z,0.73
2024-03-17T01:29:40.052Z,0.73
2024-03-17T01:30:40.160Z,0.72
2024-03-17T01:31:40.192Z,0.73
2024-03-17T01:32:40.261Z,0.73
2024-03-17T01:33:40.374Z,0.73
2024-03-17T01:34:40.415Z,0.72
2024-03-17T01:35:40.451Z,0.73
2024-03-17T01:36:40.568Z,0.73
2024-03-17T01:37:40.602Z,0.72
2024-03-17T01:38:40.724Z,0.74
2024-03-17T01:39:40.756Z,0.73
2024-03-17T01:40:40.794Z,0.74
2024-03-17T01:41:40.904Z,0.74
2024-03-17T01:42:40.962Z,0.74
2024-03-17T01:43:41.057Z,0.74
2024-03-17T01:44:41.133Z,0.74
2024-03-17T01:45:41.198Z,0.74
2024-03-17T01:46:41.244Z,0.73
2024-03-17T01:47:41.308Z,0.76
2024-03-17T01:48:41.418Z,0.74
2024-03-17T01:49:41.488Z,0.73
2024-03-17T01:50:41.523Z,0.72
2024-03-17T01:51:41.587Z,0.74
2024-03-17T01:52:41.693Z,0.75
2024-03-17T01:53:41.752Z,0.74
2024-03-17T01:54:41.808Z,0.74
2024-03-17T01:55:41.889Z,0.72
2024-03-17T01:56:41.922Z,0.74
2024-03-17T01:57:42.034Z,0.75
2024-03-17T01:58:42.096Z,0.75
2024-03-17T01:59:42.127Z,0.74
2024-03-17T02:00:42.332Z,0.75
2024-03-17T02:01:42.348Z,0.75
2024-03-17T02:02:42.375Z,0.74
2024-03-17T02:03:42.466Z,0.73
2024-03-17T02:04:42.494Z,0.74
2024-03-17T02:05:42.566Z,0.75
2024-03-17T02:06:42.710Z,0.75
2024-03-17T02:07:42.734Z,0.73
2024-03-17T02:08:42.779Z,0.74
2024-03-17T02:09:42.878Z,0.74
2024-03-17T02:10:42.942Z,0.74
2024-03-17T02:11:42.951Z,0.75
2024-03-17T02:12:43.060Z,0.75
2024-03-17T02:13:43.098Z,0.75
2024-03-17T02:14:43.149Z,0.74
2024-03-17T02:15:43.324Z,0.73
2024-03-17T02:16:43.288Z,0.73
2024-03-17T02:17:43.339Z,0.74
2024-03-17T02:18:43.397Z,0.74
2024-03-17T02:19:43.458Z,0.76
2024-03-17T02:20:43.574Z,0.75
2024-03-17T02:21:43.595Z,0.75
2024-03-17T02:22:43.708Z,0.74
2024-03-17T02:23:43.716Z,0.75
2024-03-17T02:24:43.829Z,0.74
2024-03-17T02:25:43.837Z,0.75
2024-03-17T02:26:43.938Z,0.75
2024-03-17T02:27:43.969Z,0.76
2024-03-17T02:28:44.065Z,0.75
2024-03-17T02:29:44.094Z,0.76
2024-03-17T02:30:44.158Z,0.74
2024-03-17T02:31:44.229Z,0.75
2024-03-17T02:32:44.294Z,0.75
2024-03-17T02:33:45.081Z,0.76
2024-03-17T02:34:44.454Z,0.75
2024-03-17T02:35:44.480Z,0.75
2024-03-17T02:36:44.596Z,0.77
2024-03-17T02:37:44.611Z,0.76
2024-03-17T02:38:44.703Z,0.76
2024-03-17T02:39:44.740Z,0.77
2024-03-17T02:40:44.806Z,0.75
2024-03-17T02:41:44.888Z,0.75
2024-03-17T02:42:44.974Z,0.74
2024-03-17T02:43:45.007Z,0.74
2024-03-17T02:44:45.092Z,0.75
2024-03-17T02:45:45.171Z,0.75
2024-03-17T02:46:45.211Z,0.74
2024-03-17T02:47:45.284Z,0.76
2024-03-17T02:48:45.318Z,0.74
2024-03-17T02:49:45.555Z,0.75
2024-03-17T02:50:45.489Z,0.75
2024-03-17T02:51:45.536Z,0.75
2024-03-17T02:52:45.633Z,0.76
2024-03-17T02:53:45.650Z,0.78
2024-03-17T02:54:53.409Z,0.75
2024-03-17T02:55:46.726Z,0.75
2024-03-17T02:56:45.812Z,0.76
2024-03-17T02:57:45.777Z,0.76
2024-03-17T02:58:45.757Z,0.76
2024-03-17T02:59:45.776Z,0.76
2024-03-17T03:00:45.772Z,0.76
2024-03-17T03:01:45.763Z,0.76
2024-03-17T03:02:45.813Z,0.75
2024-03-17T03:03:45.893Z,0.76
2024-03-17T03:04:45.974Z,0.75
2024-03-17T03:05:46.015Z,0.74
2024-03-17T03:06:46.124Z,0.75
2024-03-17T03:07:46.164Z,0.74
2024-03-17T03:08:46.172Z,0.76
2024-03-17T03:09:46.261Z,0.74
2024-03-17T03:10:46.351Z,0.77
2024-03-17T03:11:47.592Z,0.75
2024-03-17T03:12:46.502Z,0.75
2024-03-17T03:13:46.546Z,0.74
2024-03-17T03:14:46.643Z,0.75
2024-03-17T03:15:46.711Z,0.74
2024-03-17T03:16:46.731Z,0.75
2024-03-17T03:17:46.863Z,0.74
2024-03-17T03:18:46.892Z,0.75
2024-03-17T03:19:46.970Z,0.75
2024-03-17T03:20:47.067Z,0.75
2024-03-17T03:21:47.101Z,0.75
2024-03-17T03:22:47.183Z,0.76
2024-03-17T03:23:47.244Z,0.76
2024-03-17T03:24:47.336Z,0.76
2024-03-17T03:25:47.338Z,0.77
2024-03-17T03:26:47.412Z,0.76
2024-03-17T03:27:47.506Z,0.77
2024-03-17T03:28:47.596Z,0.78
2024-03-17T03:29:47.660Z,0.75
2024-03-17T03:30:47.718Z,0.76
2024-03-17T03:31:47.821Z,0.76
2024-03-17T03:32:47.836Z,0.78
2024-03-17T03:33:47.955Z,0.78
2024-03-17T03:34:48.002Z,0.77
2024-03-17T03:35:48.067Z,0.77
2024-03-17T03:36:48.598Z,0.76
2024-03-17T03:37:48.200Z,0.78
2024-03-17T03:38:48.317Z,0.78
2024-03-17T03:39:48.323Z,0.78
2024-03-17T03:40:48.414Z,0.77
2024-03-17T03:41:48.463Z,0.78
2024-03-17T03:42:48.548Z,0.77
2024-03-17T03:43:48.633Z,0.78
2024-03-17T03:44:48.664Z,0.79
2024-03-17T03:45:48.723Z,0.77
2024-03-17T03:46:48.817Z,0.77
2024-03-17T03:47:48.922Z,0.76
2024-03-17T03:48:49.097Z,0.78
2024-03-17T03:49:49.025Z,0.78
2024-03-17T03:50:49.046Z,0.77
2024-03-17T03:51:49.227Z,0.76
2024-03-17T03:52:49.181Z,0.77
2024-03-17T03:53:49.268Z,0.77
2024-03-17T03:54:49.347Z,0.78
2024-03-17T03:55:49.451Z,0.77
2024-03-17T03:56:49.551Z,0.78
2024-03-17T03:57:49.596Z,0.78
2024-03-17T03:58:49.601Z,0.79
2024-03-17T03:59:49.701Z,0.78
2024-03-17T04:00:49.743Z,0.76
2024-03-17T04:01:49.801Z,0.79
2024-03-17T04:02:49.939Z,0.80
2024-03-17T04:03:50.012Z,0.79
2024-03-17T04:04:50.002Z,0.76
2024-03-17T04:05:50.084Z,0.78
2024-03-17T04:06:50.149Z,0.77
2024-03-17T04:07:50.243Z,0.77
2024-03-17T04:08:50.302Z,0.78
2024-03-17T04:09:50.380Z,0.78
2024-03-17T04:10:50.473Z,0.79
2024-03-17T04:11:50.513Z,0.80
2024-03-17T04:12:50.574Z,0.80
2024-03-17T04:13:50.598Z,0.80
2024-03-17T04:14:50.730Z,0.79
2024-03-17T04:15:50.771Z,0.80
2024-03-17T04:16:50.844Z,0.79
2024-03-17T04:17:50.904Z,0.79
2024-03-17T04:18:51.114Z,0.80
2024-03-17T04:19:51.169Z,0.79
2024-03-17T04:20:51.109Z,0.77
2024-03-17T04:21:51.166Z,0.78
2024-03-17T04:22:51.240Z,0.79
2024-03-17T04:23:51.317Z,0.79
2024-03-17T04:24:51.359Z,0.79
2024-03-17T04:25:51.492Z,0.80
2024-03-17T04:26:51.533Z,0.80
2024-03-17T04:27:51.550Z,0.80
2024-03-17T04:28:51.658Z,0.80
2024-03-17T04:29:51.774Z,0.78
2024-03-17T04:30:51.759Z,0.79
2024-03-17T04:31:59.038Z,0.50
2024-03-17T04:32:59.006Z,0.50
2024-03-17T04:33:59.032Z,0.50
2024-03-17T04:34:59.183Z,0.50
2024-03-17T04:35:59.012Z,0.50
2024-03-17T04:36:58.993Z,0.50
2024-03-17T04:37:59.041Z,0.50
2024-03-17T04:38:59.085Z,0.51
2024-03-17T04:39:58.997Z,0.51
2024-03-17T04:40:59.013Z,0.51
2024-03-17T04:41:58.992Z,0.51
2024-03-17T04:42:59.021Z,0.52
2024-03-17T04:43:59.023Z,0.51
2024-03-17T04:44:59.015Z,0.50
2024-03-17T04:45:59.067Z,0.52
2024-03-17T04:46:59.046Z,0.51
2024-03-17T04:47:59.050Z,0.51
2024-03-17T04:48:59.055Z,0.52
2024-03-17T04:49:59.039Z,0.50
2024-03-17T04:50:59.038Z,0.51
2024-03-17T04:51:59.062Z,0.50
2024-03-17T04:52:59.031Z,0.52
2024-03-17T04:53:59.019Z,0.51
2024-03-17T04:54:59.097Z,0.51
2024-03-17T04:55:59.136Z,0.52
2024-03-17T04:56:59.206Z,0.51
2024-03-17T04:57:59.268Z,0.51
2024-03-17T04:58:59.285Z,0.51
2024-03-17T04:59:59.376Z,0.51
2024-03-17T05:00:59.388Z,0.51
2024-03-17T05:01:59.491Z,0.52
2024-03-17T05:02:59.576Z,0.52
2024-03-17T05:03:59.541Z,0.52
2024-03-17T05:04:59.595Z,0.52
2024-03-17T05:05:59.703Z,0.52
2024-03-17T05:06:59.690Z,0.51
2024-03-17T05:08:00.173Z,0.51
2024-03-17T05:08:59.771Z,0.51
2024-03-17T05:10:00.358Z,0.52
2024-03-17T05:10:59.852Z,0.52
2024-03-17T05:11:59.889Z,0.51
2024-03-17T05:12:59.966Z,0.52
2024-03-17T05:14:00.020Z,0.51
2024-03-17T05:15:00.037Z,0.51
2024-03-17T05:16:00.076Z,0.52
2024-03-17T05:17:00.184Z,0.52
2024-03-17T05:18:00.181Z,0.51
2024-03-17T05:19:00.174Z,0.52
2024-03-17T05:20:00.271Z,0.51
2024-03-17T05:21:00.288Z,0.52
2024-03-17T05:22:00.295Z,0.52
2024-03-17T05:23:00.271Z,0.54
2024-03-17T05:24:00.338Z,0.52
2024-03-17T05:25:00.378Z,0.51
2024-03-17T05:26:00.450Z,0.51
2024-03-17T05:27:00.483Z,0.51
2024-03-17T05:28:00.562Z,0.52
2024-03-17T05:29:00.521Z,0.52
2024-03-17T05:30:00.609Z,0.52
2024-03-17T05:31:00.682Z,0.51
2024-03-17T05:32:00.616Z,0.52
2024-03-17T05:33:00.673Z,0.53
2024-03-17T05:34:00.687Z,0.52
2024-03-17T05:35:00.800Z,0.54
2024-03-17T05:36:00.875Z,0.53
2024-03-17T05:37:00.848Z,0.53
2024-03-17T05:38:00.888Z,0.52
2024-03-17T05:39:00.922Z,0.52
2024-03-17T05:40:01.051Z,0.51
2024-03-17T05:41:01.034Z,0.51
2024-03-17T05:42:01.156Z,0.52
2024-03-17T05:43:01.055Z,0.52
2024-03-17T05:44:01.133Z,0.52
2024-03-17T05:45:01.167Z,0.52
2024-03-17T05:46:01.176Z,0.53
2024-03-17T05:47:01.160Z,0.51
2024-03-17T05:48:01.190Z,0.52
2024-03-17T05:49:01.208Z,0.52
2024-03-17T05:50:01.223Z,0.52
2024-03-17T05:51:01.231Z,0.51
2024-03-17T05:52:01.334Z,0.52
2024-03-17T05:53:01.310Z,0.52
2024-03-17T05:54:01.327Z,0.52
2024-03-17T05:55:01.373Z,0.52
2024-03-17T05:56:01.379Z,0.52
2024-03-17T05:57:01.451Z,0.53
2024-03-17T05:58:01.407Z,0.53
2024-03-17T05:59:01.435Z,0.51
2024-03-17T06:00:01.480Z,0.51
2024-03-17T06:01:01.492Z,0.51
2024-03-17T06:02:01.532Z,0.52
2024-03-17T06:03:01.518Z,0.52
2024-03-17T06:04:02.307Z,0.53
2024-03-17T06:05:01.546Z,0.52
2024-03-17T06:06:01.611Z,0.50
2024-03-17T06:07:01.749Z,0.52
2024-03-17T06:08:01.739Z,0.53
2024-03-17T06:09:01.769Z,0.52
2024-03-17T06:10:01.980Z,0.52
2024-03-17T06:11:01.839Z,0.53
2024-03-17T06:12:01.854Z,0.52
2024-03-17T06:13:01.957Z,0.52
2024-03-17T06:14:02.017Z,0.52
2024-03-17T06:15:01.996Z,0.52
2024-03-17T06:16:02.088Z,0.52
2024-03-17T06:17:02.106Z,0.51
2024-03-17T06:18:02.107Z,0.50
2024-03-17T06:19:02.354Z,0.51
2024-03-17T06:20:02.274Z,0.50
2024-03-17T06:21:02.323Z,0.51
2024-03-17T06:22:02.418Z,0.51
2024-03-17T06:23:02.502Z,0.52
2024-03-17T06:24:02.641Z,0.54
2024-03-17T06:25:02.614Z,0.55
2024-03-17T06:26:02.686Z,0.54
2024-03-17T06:27:02.779Z,0.56
2024-03-17T06:28:02.871Z,0.55
2024-03-17T06:29:02.903Z,0.56
2024-03-17T06:30:02.958Z,0.54
2024-03-17T06:31:03.013Z,0.56
2024-03-17T06:32:03.045Z,0.55
2024-03-17T06:33:03.128Z,0.54
2024-03-17T06:34:03.251Z,0.56
2024-03-17T06:35:03.230Z,0.55
2024-03-17T06:36:03.287Z,0.54
2024-03-17T06:37:03.706Z,0.54
2024-03-17T06:38:03.413Z,0.55
2024-03-17T06:39:03.484Z,0.54
2024-03-17T06:40:03.422Z,0.56
2024-03-17T06:41:03.499Z,0.55
2024-03-17T06:42:03.533Z,0.54
2024-03-17T06:43:03.556Z,0.54
2024-03-17T06:44:03.606Z,0.54
2024-03-17T06:45:03.626Z,0.53
2024-03-17T06:46:03.640Z,0.53
2024-03-17T06:47:03.622Z,0.53
2024-03-17T06:48:03.654Z,0.53
2024-03-17T06:49:03.633Z,0.54
2024-03-17T06:50:03.669Z,0.52
2024-03-17T06:51:03.665Z,0.53
2024-03-17T06:52:03.749Z,0.52
2024-03-17T06:53:03.786Z,0.52
2024-03-17T06:54:03.791Z,0.53
2024-03-17T06:55:03.762Z,0.52
2024-03-17T06:56:03.839Z,0.52
2024-03-17T06:57:03.945Z,0.53
2024-03-17T06:58:03.957Z,0.52
2024-03-17T06:59:04.052Z,0.52
2024-03-17T07:00:04.145Z,0.51
2024-03-17T07:01:04.156Z,0.50
2024-03-17T07:02:04.136Z,0.50
2024-03-17T07:03:04.149Z,0.50
2024-03-17T07:04:04.176Z,0.51
2024-03-17T07:05:04.179Z,0.51
2024-03-17T07:06:04.205Z,0.51
2024-03-17T07:07:04.219Z,0.51
2024-03-17T07:08:04.231Z,0.51
2024-03-17T07:09:04.309Z,0.51
2024-03-17T07:10:04.210Z,0.50
2024-03-17T07:11:04.232Z,0.50
2024-03-17T07:12:04.307Z,0.50
2024-03-17T07:13:04.340Z,0.51
2024-03-17T07:14:07.414Z,0.51
2024-03-17T07:15:04.372Z,0.51
2024-03-17T07:16:04.371Z,0.50
2024-03-17T07:17:04.400Z,0.52
2024-03-17T07:18:04.366Z,0.53
2024-03-17T07:19:04.356Z,0.51
2024-03-17T07:20:04.395Z,0.50
2024-03-17T07:21:33.306Z,0.50
2024-03-17T07:22:33.292Z,0.50
2024-03-17T07:23:33.291Z,0.50
2024-03-17T07:24:33.306Z,0.50
2024-03-17T07:25:33.309Z,0.50
2024-03-17T07:26:33.280Z,0.52
2024-03-17T07:27:36.673Z,0.52
2024-03-17T07:28:33.297Z,0.51
2024-03-17T07:29:33.303Z,0.51
2024-03-17T07:30:33.341Z,0.52
2024-03-17T07:31:33.305Z,0.53
2024-03-17T07:32:33.330Z,0.53
2024-03-17T07:33:33.368Z,0.54
2024-03-17T07:34:33.378Z,0.54
2024-03-17T07:35:33.334Z,0.55
2024-03-17T07:36:33.341Z,0.55
2024-03-17T07:37:33.387Z,0.57
2024-03-17T07:38:33.294Z,0.57
2024-03-17T07:39:33.295Z,0.57
2024-03-17T07:40:33.333Z,0.56
2024-03-17T07:41:33.306Z,0.58
2024-03-17T07:42:33.918Z,0.57
2024-03-17T07:43:33.345Z,0.56
2024-03-17T07:44:33.329Z,0.56
2024-03-17T07:45:33.340Z,0.56
2024-03-17T07:46:33.349Z,0.54
2024-03-17T07:47:33.368Z,0.54
2024-03-17T07:48:33.334Z,0.52
2024-03-17T07:49:33.340Z,0.53
2024-03-17T07:50:33.335Z,0.53
2024-03-17T07:51:33.351Z,0.52
2024-03-17T07:52:33.347Z,0.52
2024-03-17T07:53:33.361Z,0.52
2024-03-17T07:54:33.358Z,0.51
2024-03-17T07:55:33.381Z,0.52
2024-03-17T07:56:33.382Z,0.50
2024-03-17T07:57:33.422Z,0.51
2024-03-17T07:58:33.399Z,0.52
2024-03-17T07:59:33.468Z,0.51
2024-03-17T08:00:33.351Z,0.53
2024-03-17T08:01:33.358Z,0.52
2024-03-17T08:02:33.353Z,0.51
2024-03-17T08:03:33.367Z,0.50
2024-03-17T08:04:33.369Z,0.50
2024-03-17T08:05:33.386Z,0.51
2024-03-17T08:06:33.482Z,0.51
2024-03-17T08:07:33.440Z,0.50
2024-03-17T08:08:33.451Z,0.51
2024-03-17T08:09:33.456Z,0.51
2024-03-17T08:10:33.474Z,0.51
2024-03-17T08:11:33.482Z,0.51
2024-03-17T08:12:33.477Z,0.51
2024-03-17T08:13:33.509Z,0.51
2024-03-17T08:14:33.501Z,0.51
2024-03-17T08:15:33.451Z,0.52
2024-03-17T08:16:33.446Z,0.52
2024-03-17T08:17:33.466Z,0.51
2024-03-17T08:18:33.465Z,0.50
2024-03-17T08:19:34.283Z,0.50
2024-03-17T08:20:33.484Z,0.51
2024-03-17T08:21:33.484Z,0.50
2024-03-17T08:22:33.522Z,0.52
2024-03-17T08:23:33.488Z,0.51
2024-03-17T08:24:33.503Z,0.51
2024-03-17T08:25:33.530Z,0.51
2024-03-17T08:26:33.515Z,0.50
2024-03-17T08:27:33.523Z,0.52
2024-03-17T08:28:33.571Z,0.52
2024-03-17T08:29:33.551Z,0.52
2024-03-17T08:30:33.531Z,0.51
2024-03-17T08:31:33.541Z,0.51
2024-03-17T08:32:33.561Z,0.50
2024-03-17T08:33:33.563Z,0.52
2024-03-17T08:34:33.573Z,0.51
2024-03-17T08:35:33.586Z,0.51
2024-03-17T08:36:33.596Z,0.51
2024-03-17T08:37:35.474Z,0.51
2024-03-17T08:38:33.592Z,0.51
2024-03-17T08:39:33.663Z,0.50
2024-03-17T08:40:33.614Z,0.51
2024-03-17T08:41:33.634Z,0.51
2024-03-17T08:42:33.609Z,0.51
2024-03-17T08:43:33.673Z,0.51
2024-03-17T08:44:33.701Z,0.52
2024-03-17T08:45:43.929Z,0.52
2024-03-17T08:46:34.632Z,0.52
2024-03-17T08:47:33.662Z,0.52
2024-03-17T08:48:33.625Z,0.51
2024-03-17T08:49:33.631Z,0.51
2024-03-17T08:50:35.262Z,0.52
2024-03-17T08:51:33.646Z,0.52
2024-03-17T08:52:33.653Z,0.51
2024-03-17T08:53:33.660Z,0.52
2024-03-17T08:54:33.639Z,0.52
2024-03-17T08:55:33.779Z,0.52
2024-03-17T08:56:33.684Z,0.51
2024-03-17T08:57:33.685Z,0.51
2024-03-17T08:58:33.650Z,0.51
2024-03-17T08:59:33.640Z,0.51
2024-03-17T09:00:33.663Z,0.52
2024-03-17T09:01:33.657Z,0.50
2024-03-17T09:02:33.665Z,0.51
2024-03-17T09:03:33.664Z,0.51
2024-03-17T09:04:33.684Z,0.51
2024-03-17T09:05:33.742Z,0.51
2024-03-17T09:06:33.684Z,0.52
2024-03-17T09:07:33.702Z,0.51
2024-03-17T09:08:33.659Z,0.52
2024-03-17T09:09:33.658Z,0.52
2024-03-17T09:10:33.678Z,0.53
2024-03-17T09:11:33.644Z,0.51
2024-03-17T09:12:33.684Z,0.51
2024-03-17T09:13:33.683Z,0.51
2024-03-17T09:14:33.968Z,0.52
2024-03-17T09:15:33.673Z,0.51
2024-03-17T09:16:33.702Z,0.51
2024-03-17T09:17:33.665Z,0.51
2024-03-17T09:18:33.677Z,0.50
2024-03-17T09:19:33.941Z,0.51
2024-03-17T09:20:33.700Z,0.51
2024-03-17T09:21:33.700Z,0.51
2024-03-17T09:22:33.706Z,0.51
2024-03-17T09:23:33.701Z,0.52
2024-03-17T09:24:33.723Z,0.51
2024-03-17T09:25:33.717Z,0.50
2024-03-17T09:26:33.722Z,0.51
2024-03-17T09:27:33.679Z,0.51
2024-03-17T09:28:33.701Z,0.52
2024-03-17T09:29:33.707Z,0.52
2024-03-17T09:30:33.758Z,0.51
2024-03-17T09:31:33.769Z,0.51
2024-03-17T09:32:33.813Z,0.52
2024-03-17T09:33:33.872Z,0.51
2024-03-17T09:34:33.940Z,0.52
2024-03-17T09:35:33.985Z,0.51
2024-03-17T09:36:34.021Z,0.51
2024-03-17T09:37:34.114Z,0.51
2024-03-17T09:38:34.178Z,0.51
2024-03-17T09:39:34.227Z,0.51
2024-03-17T09:40:34.232Z,0.51
2024-03-17T09:41:34.343Z,0.52
2024-03-17T09:42:34.418Z,0.51
2024-03-17T09:43:34.372Z,0.51
2024-03-17T09:44:34.463Z,0.52
2024-03-17T09:45:34.549Z,0.52
2024-03-17T09:46:34.577Z,0.52
2024-03-17T09:47:34.579Z,0.52
2024-03-17T09:48:34.696Z,0.52
2024-03-17T09:49:34.707Z,0.51
2024-03-17T09:50:34.769Z,0.51
2024-03-17T09:51:34.813Z,0.51
2024-03-17T09:52:34.889Z,0.51
2024-03-17T09:53:34.946Z,0.51
2024-03-17T09:54:35.005Z,0.52
2024-03-17T09:55:35.009Z,0.51
2024-03-17T09:56:35.140Z,0.53
2024-03-17T09:57:35.124Z,0.51
2024-03-17T09:58:35.175Z,0.51
2024-03-17T09:59:35.240Z,0.51
2024-03-17T10:00:35.275Z,0.53
2024-03-17T10:01:35.299Z,0.51
2024-03-17T10:02:35.367Z,0.51
2024-03-17T10:03:35.385Z,0.52
2024-03-17T10:04:35.422Z,0.52
2024-03-17T10:05:35.463Z,0.52
2024-03-17T10:06:35.524Z,0.51
2024-03-17T10:07:35.561Z,0.51
2024-03-17T10:08:35.600Z,0.52
2024-03-17T10:09:37.179Z,0.52
2024-03-17T10:10:35.652Z,0.51
2024-03-17T10:11:35.723Z,0.53
2024-03-17T10:12:35.771Z,0.51
2024-03-17T10:13:35.870Z,0.52
2024-03-17T10:14:35.859Z,0.51
2024-03-17T10:15:35.934Z,0.51
2024-03-17T10:16:35.970Z,0.51
2024-03-17T10:17:36.040Z,0.52
2024-03-17T10:18:36.055Z,0.51
2024-03-17T10:19:39.461Z,0.52
2024-03-17T10:20:37.091Z,0.52
2024-03-17T10:21:36.098Z,0.52
2024-03-17T10:22:36.119Z,0.52
2024-03-17T10:23:36.155Z,0.51
2024-03-17T10:24:36.132Z,0.53
2024-03-17T10:25:36.134Z,0.52
2024-03-17T10:26:36.096Z,0.52
2024-03-17T10:27:36.078Z,0.51
2024-03-17T10:28:36.224Z,0.51
2024-03-17T10:29:36.162Z,0.53
2024-03-17T10:30:36.148Z,0.52
2024-03-17T10:31:36.180Z,0.52
2024-03-17T10:32:36.233Z,0.53
2024-03-17T10:33:38.594Z,0.52
2024-03-17T10:34:36.376Z,0.52
2024-03-17T10:35:36.312Z,0.52
2024-03-17T10:36:36.277Z,0.52
2024-03-17T10:37:36.241Z,0.51
2024-03-17T10:38:36.257Z,0.51
2024-03-17T10:39:36.258Z,0.54
2024-03-17T10:40:36.266Z,0.51
2024-03-17T10:41:36.281Z,0.53
2024-03-17T10:42:36.230Z,0.50
2024-03-17T10:43:36.244Z,0.51
2024-03-17T10:44:36.320Z,0.52
2024-03-17T10:45:36.273Z,0.52
2024-03-17T10:46:44.936Z,0.52
2024-03-17T10:47:37.271Z,0.52
2024-03-17T10:48:36.325Z,0.52
2024-03-17T10:49:36.316Z,0.51
2024-03-17T10:50:36.317Z,0.52
2024-03-17T10:51:36.284Z,0.52
2024-03-17T10:52:44.914Z,0.52
2024-03-17T10:53:37.284Z,0.52
2024-03-17T10:54:36.360Z,0.52
2024-03-17T10:55:36.284Z,0.52
2024-03-17T10:56:36.283Z,0.52
2024-03-17T10:57:36.294Z,0.54
2024-03-17T10:58:36.289Z,0.52
2024-03-17T10:59:36.282Z,0.52
2024-03-17T11:00:36.473Z,0.52
2024-03-17T11:01:36.275Z,0.52
2024-03-17T11:02:36.352Z,0.53
2024-03-17T11:03:36.297Z,0.51
2024-03-17T11:04:36.332Z,0.53
2024-03-17T11:05:36.436Z,0.50
2024-03-17T11:06:36.429Z,0.53
2024-03-17T11:07:36.447Z,0.50
2024-03-17T11:08:36.476Z,0.52
2024-03-17T11:09:36.534Z,0.52
2024-03-17T11:10:36.560Z,0.51
2024-03-17T11:11:36.666Z,0.51
2024-03-17T11:12:36.654Z,0.52
2024-03-17T11:13:36.695Z,0.51
2024-03-17T11:14:36.711Z,0.51
2024-03-17T11:15:36.763Z,0.52
2024-03-17T11:16:36.822Z,0.52
2024-03-17T11:17:36.833Z,0.51
2024-03-17T11:18:36.885Z,0.52
2024-03-17T11:19:36.910Z,0.53
2024-03-17T11:20:36.927Z,0.52
2024-03-17T11:21:36.963Z,0.53
2024-03-17T11:22:37.008Z,0.51
2024-03-17T11:23:37.033Z,0.53
2024-03-17T11:24:37.073Z,0.51
2024-03-17T11:25:37.136Z,0.51
2024-03-17T11:26:37.152Z,0.52
2024-03-17T11:27:37.173Z,0.52
2024-03-17T11:28:37.209Z,0.52
2024-03-17T11:29:37.215Z,0.52
2024-03-17T11:30:37.380Z,0.54
2024-03-17T11:31:37.276Z,0.51
2024-03-17T11:32:37.282Z,0.53
2024-03-17T11:33:37.305Z,0.53
2024-03-17T11:34:37.357Z,0.52
2024-03-17T11:35:37.371Z,0.51
2024-03-17T11:36:37.415Z,0.51
2024-03-17T11:37:37.476Z,0.52
2024-03-17T11:38:37.483Z,0.51
2024-03-17T11:39:37.524Z,0.53
2024-03-17T11:40:37.549Z,0.52
2024-03-17T11:41:37.665Z,0.52
2024-03-17T11:42:37.619Z,0.52
2024-03-17T11:43:37.690Z,0.52
2024-03-17T11:44:37.686Z,0.50
2024-03-17T11:45:37.762Z,0.52
2024-03-17T11:46:37.781Z,0.52
2024-03-17T11:47:37.822Z,0.52
2024-03-17T11:48:37.824Z,0.52
2024-03-17T11:49:37.885Z,0.52
2024-03-17T11:50:37.936Z,0.53
2024-03-17T11:51:38.028Z,0.53
2024-03-17T11:52:38.035Z,0.52
2024-03-17T11:53:38.039Z,0.54
2024-03-17T11:54:38.099Z,0.52
2024-03-17T11:55:38.199Z,0.52
2024-03-17T11:56:38.170Z,0.52
2024-03-17T11:57:38.271Z,0.52
2024-03-17T11:58:38.266Z,0.53
2024-03-17T11:59:38.297Z,0.52
2024-03-17T12:00:38.344Z,0.52
2024-03-17T12:01:38.406Z,0.52
2024-03-17T12:02:40.108Z,0.52
2024-03-17T12:03:38.468Z,0.53
2024-03-17T12:04:38.471Z,0.54
2024-03-17T12:05:38.440Z,0.53
2024-03-17T12:06:38.497Z,0.52
2024-03-17T12:07:38.471Z,0.51
2024-03-17T12:08:38.450Z,0.53
2024-03-17T12:09:38.434Z,0.53
2024-03-17T12:10:38.445Z,0.54
2024-03-17T12:11:38.417Z,0.52
2024-03-17T12:12:38.482Z,0.52
2024-03-17T12:13:38.431Z,0.53
2024-03-17T12:14:38.437Z,0.52
2024-03-17T12:15:38.507Z,0.52
2024-03-17T12:16:38.508Z,0.52
2024-03-17T12:17:38.453Z,0.52
2024-03-17T12:18:38.442Z,0.53
2024-03-17T12:19:38.469Z,0.53
2024-03-17T12:20:38.428Z,0.52
2024-03-17T12:21:38.417Z,0.52
2024-03-17T12:22:38.452Z,0.53
2024-03-17T12:23:38.446Z,0.52
2024-03-17T12:24:38.437Z,0.53
2024-03-17T12:25:38.436Z,0.51
2024-03-17T12:26:38.475Z,0.51
2024-03-17T12:27:38.444Z,0.52
2024-03-17T12:28:38.464Z,0.53
2024-03-17T12:29:38.522Z,0.52
2024-03-17T12:30:38.503Z,0.52
2024-03-17T12:31:38.509Z,0.52
2024-03-17T12:32:38.446Z,0.52
2024-03-17T12:33:38.441Z,0.52
2024-03-17T12:34:38.457Z,0.51
2024-03-17T12:35:38.472Z,0.52
2024-03-17T12:36:38.488Z,0.52
2024-03-17T12:37:38.537Z,0.52
2024-03-17T12:38:38.486Z,0.51
2024-03-17T12:39:38.491Z,0.52
2024-03-17T12:40:38.540Z,0.52
2024-03-17T12:41:38.446Z,0.52
2024-03-17T12:42:38.461Z,0.52
2024-03-17T12:43:38.576Z,0.52
2024-03-17T12:44:38.511Z,0.52
2024-03-17T12:45:38.550Z,0.52
2024-03-17T12:46:38.574Z,0.53
2024-03-17T12:47:38.709Z,0.52
2024-03-17T12:48:38.691Z,0.51
2024-03-17T12:49:38.831Z,0.52
2024-03-17T12:50:38.897Z,0.51
2024-03-17T12:51:38.942Z,0.51
2024-03-17T12:52:39.002Z,0.51
2024-03-17T12:53:39.063Z,0.52
2024-03-17T12:54:39.123Z,0.53
2024-03-17T12:55:39.247Z,0.52
2024-03-17T12:56:39.300Z,0.52
2024-03-17T12:57:39.394Z,0.51
2024-03-17T12:58:39.451Z,0.51
2024-03-17T12:59:39.473Z,0.53
2024-03-17T13:00:39.619Z,0.52
2024-03-17T13:01:39.620Z,0.52
2024-03-17T13:02:39.694Z,0.52
2024-03-17T13:03:40.054Z,0.52
2024-03-17T13:04:39.871Z,0.52
2024-03-17T13:05:39.899Z,0.52
2024-03-17T13:06:40.006Z,0.52
2024-03-17T13:07:40.086Z,0.52
2024-03-17T13:08:40.177Z,0.52
2024-03-17T13:09:40.236Z,0.53
2024-03-17T13:10:40.256Z,0.51
2024-03-17T13:11:40.279Z,0.52
2024-03-17T13:12:40.379Z,0.53
2024-03-17T13:13:41.126Z,0.52
2024-03-17T13:14:40.536Z,0.52
2024-03-17T13:15:40.586Z,0.51
2024-03-17T13:16:40.645Z,0.52
2024-03-17T13:17:40.757Z,0.52
2024-03-17T13:18:40.864Z,0.53
2024-03-17T13:19:40.845Z,0.53